Time;durP1;ratioP1;P1;durP2;ratioP2;P2;SDS_P1;SDS_P2;PMS_P1;PMS_P2;Temp;Humidity;BMP_temperature;BMP_pressure;BME280_temperature;BME280_humidity;BME280_pressure;Samples;Min_cycle;Max_cycle;Signal;HPM_P1;HPM_P2
2021/07/23 00:01:59;;;;;;;5.53;1.80;;;;;;;18.05;100.00;100496.34;1677468;83;21667;-87
2021/07/23 00:04:25;;;;;;;9.90;2.15;;;;;;;18.03;100.00;100495.04;1667743;84;21548;-86
2021/07/23 00:06:51;;;;;;;7.45;1.82;;;;;;;18.01;100.00;100494.00;1668942;85;21537;-87
2021/07/23 00:09:17;;;;;;;3.85;1.50;;;;;;;17.98;100.00;100497.92;1670993;85;20971;-87
2021/07/23 00:11:42;;;;;;;7.60;1.45;;;;;;;17.95;100.00;100496.62;1663882;85;20900;-87
2021/07/23 00:14:09;;;;;;;5.12;1.60;;;;;;;17.92;100.00;100493.16;1688353;83;20908;-88
2021/07/23 00:16:36;;;;;;;5.20;1.80;;;;;;;17.90;100.00;100494.02;1696590;83;21039;-87
2021/07/23 00:19:04;;;;;;;3.37;1.42;;;;;;;17.88;100.00;100492.14;1669052;83;21165;-88
2021/07/23 00:21:30;;;;;;;7.47;1.60;;;;;;;17.86;100.00;100495.77;1708241;83;21062;-88
2021/07/23 00:23:56;;;;;;;7.78;2.00;;;;;;;17.83;100.00;100496.39;1663257;84;21735;-87
2021/07/23 00:26:21;;;;;;;5.90;1.65;;;;;;;17.79;100.00;100508.45;1687291;83;21003;-87
2021/07/23 00:28:48;;;;;;;5.42;1.50;;;;;;;17.78;100.00;100508.77;1683986;83;20909;-87
2021/07/23 00:31:14;;;;;;;6.67;1.45;;;;;;;17.74;100.00;100503.67;1687100;84;21145;-91
2021/07/23 00:33:44;;;;;;;6.00;1.52;;;;;;;17.70;100.00;100510.28;1681845;83;21114;-86
2021/07/23 00:36:10;;;;;;;11.65;2.30;;;;;;;17.68;100.00;100508.44;1671104;84;21595;-86
2021/07/23 00:38:36;;;;;;;4.55;1.90;;;;;;;17.64;100.00;100508.80;1655103;85;20955;-86
2021/07/23 00:41:02;;;;;;;3.50;1.77;;;;;;;17.60;100.00;100512.70;1657436;85;21023;-87
2021/07/23 00:43:30;;;;;;;7.25;1.90;;;;;;;17.54;100.00;100509.84;1669403;84;21160;-90
2021/07/23 00:45:56;;;;;;;10.28;1.62;;;;;;;17.49;100.00;100512.69;1661179;85;21046;-86
2021/07/23 00:48:24;;;;;;;4.15;1.30;;;;;;;17.44;100.00;100511.43;1664472;84;21081;-86
2021/07/23 00:50:50;;;;;;;4.05;1.45;;;;;;;17.40;100.00;100514.53;1680652;84;21121;-84
2021/07/23 00:53:16;;;;;;;5.47;1.50;;;;;;;17.36;100.00;100510.83;1688522;81;21066;-87
2021/07/23 00:55:46;;;;;;;4.05;1.27;;;;;;;17.32;100.00;100506.52;1728396;81;21132;-86
2021/07/23 00:58:12;;;;;;;4.87;1.50;;;;;;;17.30;100.00;100507.41;1731812;81;21154;-86
2021/07/23 01:00:40;;;;;;;6.12;1.70;;;;;;;17.27;100.00;100509.95;1749078;81;21051;-89
2021/07/23 01:03:06;;;;;;;3.15;1.55;;;;;;;17.21;100.00;100507.33;1742523;81;21056;-85
2021/07/23 01:05:31;;;;;;;6.53;1.50;;;;;;;17.07;100.00;100488.84;1729505;81;21029;-86
2021/07/23 01:08:00;;;;;;;5.85;1.98;;;;;;;17.14;100.00;100508.28;1740939;81;20988;-91
2021/07/23 01:10:27;;;;;;;4.87;1.50;;;;;;;17.06;100.00;100506.30;1749654;81;21094;-90
2021/07/23 01:12:53;;;;;;;3.95;1.62;;;;;;;17.06;100.00;100506.30;1746227;81;21110;-86
2021/07/23 01:15:19;;;;;;;3.60;1.82;;;;;;;17.05;100.00;100505.23;1746090;81;21045;-83
2021/07/23 01:17:45;;;;;;;10.55;1.42;;;;;;;17.03;100.00;100506.92;1718437;81;21101;-85
2021/07/23 01:20:25;;;;;;;6.53;1.70;;;;;;;17.03;100.00;100508.28;1736529;81;21602;-84
2021/07/23 01:23:00;;;;;;;3.33;1.57;;;;;;;17.01;100.00;100505.84;1723598;81;21002;-85
2021/07/23 01:25:28;;;;;;;2.85;1.22;;;;;;;16.99;100.00;100508.62;1745785;81;21637;-87
2021/07/23 01:27:55;;;;;;;3.92;1.70;;;;;;;16.96;100.00;100514.11;1734434;80;21524;-85
2021/07/23 01:30:24;;;;;;;6.87;1.65;;;;;;;16.93;100.00;100518.80;1727304;81;21522;-85
2021/07/23 01:32:52;;;;;;;6.25;1.30;;;;;;;16.91;100.00;100518.86;1737325;79;21118;-83
2021/07/23 01:35:20;;;;;;;4.83;1.80;;;;;;;16.89;100.00;100519.73;1747570;81;20965;-92
2021/07/23 01:37:51;;;;;;;4.72;1.27;;;;;;;16.86;100.00;100518.98;1769326;80;21079;-87
2021/07/23 01:40:17;;;;;;;7.87;1.55;;;;;;;16.65;100.00;100499.48;1751783;80;21488;-91
2021/07/23 01:42:44;;;;;;;5.17;1.70;;;;;;;16.79;100.00;100523.45;1755300;80;20868;-85
2021/07/23 01:45:11;;;;;;;6.58;1.42;;;;;;;16.76;100.00;100524.86;1753574;81;21177;-85
2021/07/23 01:47:38;;;;;;;10.80;1.52;;;;;;;16.73;100.00;100521.35;1758948;80;21020;-88
2021/07/23 01:50:06;;;;;;;8.23;1.80;;;;;;;16.71;100.00;100527.67;1767748;80;20972;-85
2021/07/23 01:52:33;;;;;;;4.35;1.50;;;;;;;16.69;100.00;100520.91;1738554;80;21073;-84
2021/07/23 01:54:59;;;;;;;4.10;1.62;;;;;;;16.65;100.00;100522.08;1755576;80;21522;-86
2021/07/23 01:57:25;;;;;;;3.05;1.52;;;;;;;16.62;100.00;100525.41;1747355;81;21183;-85
2021/07/23 01:59:51;;;;;;;3.75;1.57;;;;;;;16.45;100.00;100511.59;1739703;81;21491;-84
2021/07/23 02:02:17;;;;;;;2.05;1.40;;;;;;;16.45;100.00;100511.59;1750937;81;20868;-87
2021/07/23 02:04:43;;;;;;;2.20;1.35;;;;;;;16.51;100.00;100530.23;1748920;80;20959;-84
2021/07/23 02:07:08;;;;;;;6.97;1.60;;;;;;;16.51;100.00;100532.15;1735813;81;20865;-84
2021/07/23 02:09:34;;;;;;;3.72;1.50;;;;;;;16.49;100.00;100530.27;1735763;81;21562;-84
2021/07/23 02:12:00;;;;;;;7.22;1.60;;;;;;;16.46;100.00;100530.31;1744616;80;21040;-81
2021/07/23 02:14:29;;;;;;;5.67;1.57;;;;;;;16.45;100.00;100537.44;1749889;80;20885;-84
2021/07/23 02:16:55;;;;;;;4.45;1.70;;;;;;;16.46;100.00;100529.52;1744959;80;21479;-84
2021/07/23 02:19:20;;;;;;;6.65;1.52;;;;;;;16.46;100.00;100537.11;1734341;81;21077;-84
2021/07/23 02:21:46;;;;;;;7.90;1.92;;;;;;;16.46;100.00;100537.11;1748111;80;21142;-84
2021/07/23 02:24:12;;;;;;;3.08;1.50;;;;;;;16.45;100.00;100540.95;1741746;80;20964;-84
2021/07/23 02:26:38;;;;;;;6.08;1.47;;;;;;;16.46;100.00;100545.28;1747637;80;20889;-85
2021/07/23 02:29:04;;;;;;;4.12;1.40;;;;;;;16.46;100.00;100545.83;1740226;81;20889;-83
2021/07/23 02:31:29;;;;;;;7.03;1.47;;;;;;;16.47;100.00;100550.99;1755567;80;20905;-83
2021/07/23 02:33:55;;;;;;;2.70;1.45;;;;;;;16.48;100.00;100548.52;1748846;80;21797;-83
2021/07/23 02:36:21;;;;;;;6.53;1.47;;;;;;;16.52;100.00;100550.07;1735843;81;20864;-84
2021/07/23 02:38:47;;;;;;;11.70;1.77;;;;;;;16.53;100.00;100548.95;1756337;80;20916;-84
2021/07/23 02:41:13;;;;;;;2.50;1.27;;;;;;;16.55;100.00;100549.47;1771565;80;21018;-84
2021/07/23 02:43:39;;;;;;;7.25;1.47;;;;;;;16.58;100.00;100547.51;1748191;80;20881;-84
2021/07/23 02:46:05;;;;;;;5.65;1.80;;;;;;;16.64;100.00;100553.10;1747817;79;21154;-83
2021/07/23 02:48:30;;;;;;;4.10;1.72;;;;;;;16.68;100.00;100551.41;1770744;80;20963;-84
2021/07/23 02:50:56;;;;;;;8.58;2.17;;;;;;;16.72;100.00;100553.77;1740616;80;20899;-84
2021/07/23 02:53:22;;;;;;;6.72;1.90;;;;;;;16.78;100.00;100556.67;1725958;81;20908;-83
2021/07/23 02:55:52;;;;;;;6.12;1.40;;;;;;;16.87;100.00;100558.70;1727950;80;20883;-81
2021/07/23 02:58:18;;;;;;;3.08;1.50;;;;;;;16.93;100.00;100555.56;1757450;80;21139;-90
2021/07/23 03:00:44;;;;;;;6.92;2.00;;;;;;;17.01;100.00;100563.58;1740660;80;20987;-85
2021/07/23 03:03:10;;;;;;;3.20;1.42;;;;;;;17.09;100.00;100558.80;1766427;79;20951;-84
2021/07/23 03:05:36;;;;;;;3.72;1.55;;;;;;;17.16;100.00;100561.09;1776818;80;20880;-84
2021/07/23 03:08:02;;;;;;;8.15;1.60;;;;;;;17.23;100.00;100562.27;1770597;80;21609;-83
2021/07/23 03:10:28;;;;;;;4.58;2.12;;;;;;;17.32;100.00;100564.28;1757438;79;21095;-84
2021/07/23 03:12:53;;;;;;;4.28;1.50;;;;;;;17.40;100.00;100561.64;1742221;81;20999;-84
2021/07/23 03:15:20;;;;;;;3.45;1.20;;;;;;;17.52;100.00;100567.92;1746605;81;20861;-83
2021/07/23 03:17:46;;;;;;;2.25;1.42;;;;;;;17.61;100.00;100566.64;1739814;81;21074;-84
2021/07/23 03:20:13;;;;;;;3.72;1.50;;;;;;;17.75;100.00;100565.24;1763594;79;20877;-84
2021/07/23 03:22:38;;;;;;;8.15;1.70;;;;;;;18.18;100.00;100564.75;1738213;81;21914;-82
2021/07/23 03:25:05;;;;;;;4.87;1.90;;;;;;;18.82;100.00;100568.00;1770426;80;20923;-83
2021/07/23 03:27:32;;;;;;;5.60;1.70;;;;;;;19.43;100.00;100568.15;1756211;80;21129;-84
2021/07/23 03:29:59;;;;;;;4.40;1.65;;;;;;;20.13;100.00;100573.88;1735080;81;21083;-84
2021/07/23 03:32:29;;;;;;;2.10;1.35;;;;;;;20.77;100.00;100572.27;1750870;80;21599;-85
2021/07/23 03:34:55;;;;;;;3.40;1.55;;;;;;;21.48;100.00;100564.70;1744541;80;21083;-83
2021/07/23 03:37:21;;;;;;;10.28;1.95;;;;;;;22.05;100.00;100567.36;1751254;81;20955;-84
2021/07/23 03:39:47;;;;;;;4.95;1.67;;;;;;;22.61;100.00;100565.00;1747011;81;20849;-84
2021/07/23 03:42:13;;;;;;;4.15;1.50;;;;;;;23.10;95.84;100559.54;1736484;81;20845;-84
2021/07/23 03:44:38;;;;;;;4.05;1.70;;;;;;;23.56;86.45;100568.40;1742844;80;20941;-88
2021/07/23 03:47:04;;;;;;;3.85;1.80;;;;;;;23.86;81.32;100562.01;1758822;80;21106;-84
2021/07/23 03:49:30;;;;;;;1.95;1.30;;;;;;;24.18;79.81;100568.98;1736089;80;20911;-85
2021/07/23 03:51:58;;;;;;;1.85;1.50;;;;;;;24.62;77.94;100564.25;1760768;80;21705;-85
2021/07/23 03:54:24;;;;;;;4.30;1.70;;;;;;;25.17;71.53;100562.98;1756825;80;20972;-83
2021/07/23 03:56:50;;;;;;;2.85;1.92;;;;;;;25.61;70.16;100562.17;1758465;80;20896;-81
2021/07/23 03:59:15;;;;;;;5.30;1.87;;;;;;;26.00;64.72;100558.63;1766501;80;21164;-85
2021/07/23 04:01:41;;;;;;;2.77;1.45;;;;;;;26.31;62.36;100565.92;1756730;80;21103;-84
2021/07/23 04:04:10;;;;;;;4.58;1.62;;;;;;;26.37;59.03;100562.27;1753262;80;20979;-88
2021/07/23 04:06:36;;;;;;;6.22;1.85;;;;;;;26.59;58.86;100561.51;1754377;80;21071;-84
2021/07/23 04:09:04;;;;;;;4.87;1.60;;;;;;;26.94;56.87;100557.69;1765173;80;20920;-84
2021/07/23 04:11:35;;;;;;;2.25;1.60;;;;;;;27.07;54.52;100553.55;1717828;81;21809;-84
2021/07/23 04:14:00;;;;;;;4.15;1.90;;;;;;;27.33;53.74;100555.53;1721673;82;21068;-88
2021/07/23 04:16:25;;;;;;;2.80;1.62;;;;;;;27.69;53.38;100554.59;1733902;82;21017;-84
2021/07/23 04:18:52;;;;;;;4.45;2.08;;;;;;;28.10;51.01;100546.97;1737476;82;21678;-85
2021/07/23 04:21:18;;;;;;;8.00;1.75;;;;;;;28.19;49.34;100556.56;1719159;82;21489;-92
2021/07/23 04:23:44;;;;;;;4.80;2.00;;;;;;;28.36;48.16;100547.42;1741780;82;21450;-85
2021/07/23 04:26:12;;;;;;;6.17;2.10;;;;;;;28.32;46.96;100551.52;1717267;82;21048;-85
2021/07/23 04:28:38;;;;;;;3.60;1.65;;;;;;;28.28;46.81;100545.95;1702731;82;21105;-85
2021/07/23 04:31:04;;;;;;;3.30;1.80;;;;;;;28.69;46.78;100551.48;1729334;82;20967;-87
2021/07/23 04:33:29;;;;;;;3.65;1.85;;;;;;;29.06;46.61;100562.27;1705078;82;20879;-82
2021/07/23 04:35:55;;;;;;;4.83;1.90;;;;;;;29.34;44.75;100565.81;1712441;82;21766;-85
2021/07/23 04:38:22;;;;;;;4.37;2.00;;;;;;;29.64;44.01;100558.63;1709548;82;21180;-85
2021/07/23 04:40:47;;;;;;;9.60;2.10;;;;;;;29.78;43.02;100561.46;1719160;82;21126;-85
2021/07/23 04:45:41;;;;;;;2.45;1.57;;;;;;;30.37;41.32;100564.60;1673812;84;21036;-85
2021/07/23 04:48:07;;;;;;;3.42;1.70;;;;;;;30.33;41.82;100565.99;1679418;85;21905;-84
2021/07/23 04:50:33;;;;;;;2.70;1.80;;;;;;;30.81;42.25;100560.05;1685487;85;20909;-84
2021/07/23 04:52:58;;;;;;;6.12;2.10;;;;;;;31.52;41.06;100567.47;1673845;84;21552;-87
2021/07/23 04:55:24;;;;;;;3.80;1.50;;;;;;;31.81;39.44;100568.13;1679862;84;20996;-84
2021/07/23 04:57:50;;;;;;;8.05;2.00;;;;;;;32.01;38.52;100572.64;1678370;84;21021;-81
2021/07/23 05:00:17;;;;;;;7.20;1.57;;;;;;;31.90;37.24;100572.69;1673708;84;21931;-83
2021/07/23 05:02:43;;;;;;;6.45;1.77;;;;;;;31.79;37.33;100573.91;1673829;85;20983;-83
2021/07/23 05:05:13;;;;;;;4.20;2.35;;;;;;;31.94;37.81;100583.02;1658694;84;21099;-82
2021/07/23 05:07:42;;;;;;;8.78;1.70;;;;;;;32.26;37.41;100578.65;1692473;82;21024;-83
2021/07/23 05:10:09;;;;;;;4.50;2.12;;;;;;;32.94;37.06;100583.70;1660448;84;21028;-88
2021/07/23 05:12:37;;;;;;;7.33;1.80;;;;;;;33.23;35.30;100577.24;1665883;85;21044;-85
2021/07/23 05:15:04;;;;;;;2.45;1.62;;;;;;;33.45;36.41;100573.01;1658958;84;21100;-85
2021/07/23 05:17:33;;;;;;;4.87;1.72;;;;;;;34.05;35.37;100583.25;1665611;85;21213;-85
2021/07/23 05:20:01;;;;;;;3.98;1.70;;;;;;;34.59;34.46;100582.45;1664724;85;21029;-86
2021/07/23 05:22:27;;;;;;;1.90;1.80;;;;;;;35.19;33.22;100577.80;1668273;85;21064;-84
2021/07/23 05:24:53;;;;;;;3.80;1.70;;;;;;;35.67;32.38;100584.86;1636148;85;21146;-86
2021/07/23 05:27:19;;;;;;;2.83;1.80;;;;;;;35.91;32.23;100588.96;1655217;84;21653;-83
2021/07/23 05:29:45;;;;;;;2.42;2.00;;;;;;;36.23;31.42;100593.08;1694085;83;20915;-85
2021/07/23 05:32:11;;;;;;;4.03;1.90;;;;;;;36.66;31.51;100593.48;1698224;83;20841;-84
2021/07/23 05:34:37;;;;;;;5.40;1.77;;;;;;;37.22;29.76;100586.98;1689167;83;20983;-85
2021/07/23 05:37:03;;;;;;;13.72;2.27;;;;;;;37.39;29.00;100585.53;1680576;83;21005;-84
2021/07/23 05:39:29;;;;;;;3.22;2.15;;;;;;;37.01;29.31;100592.58;1701039;83;21070;-84
2021/07/23 05:41:55;;;;;;;2.90;1.85;;;;;;;36.99;29.15;100592.81;1694187;82;21060;-86
2021/07/23 05:44:21;;;;;;;5.05;2.02;;;;;;;37.32;29.67;100589.93;1729381;81;20828;-85
2021/07/23 05:46:46;;;;;;;4.08;1.82;;;;;;;37.84;28.75;100590.25;1733480;82;21001;-86
2021/07/23 05:49:12;;;;;;;3.90;2.10;;;;;;;38.16;28.04;100595.70;1729379;81;21942;-85
2021/07/23 05:51:39;;;;;;;5.15;2.12;;;;;;;38.52;27.78;100594.56;1702740;82;39510;-87
2021/07/23 05:54:05;;;;;;;4.42;2.12;;;;;;;38.72;27.27;100593.52;1728646;81;20884;-85
2021/07/23 05:56:31;;;;;;;3.47;2.17;;;;;;;39.25;27.72;100598.69;1693959;82;20968;-85
2021/07/23 05:58:57;;;;;;;5.30;2.15;;;;;;;39.57;26.90;100601.61;1722554;81;21002;-86
2021/07/23 06:01:22;;;;;;;5.75;2.30;;;;;;;39.66;26.99;100594.61;1720380;81;21154;-86
2021/07/23 06:03:48;;;;;;;8.00;2.40;;;;;;;40.18;25.85;100593.81;1726476;81;21002;-90
2021/07/23 06:06:15;;;;;;;4.35;2.30;;;;;;;40.44;25.35;100596.37;1738544;78;20905;-92
2021/07/23 06:08:40;;;;;;;4.42;2.35;;;;;;;40.31;24.72;100600.74;1780787;79;21080;-84
2021/07/23 06:11:07;;;;;;;3.80;2.10;;;;;;;40.02;25.47;100596.06;1783730;80;21059;-86
2021/07/23 06:13:36;;;;;;;2.67;2.30;;;;;;;40.03;25.42;100598.41;1785626;77;21013;-86
2021/07/23 06:16:05;;;;;;;3.20;2.50;;;;;;;40.49;24.46;100602.83;1770133;80;21048;-86
2021/07/23 06:18:30;;;;;;;3.08;2.22;;;;;;;40.64;24.93;100600.22;1766815;79;21070;-89
2021/07/23 06:20:56;;;;;;;5.60;2.27;;;;;;;40.94;24.07;100601.34;1775167;79;21030;-88
2021/07/23 06:23:22;;;;;;;2.92;2.37;;;;;;;40.82;23.73;100606.52;1777339;79;20894;-91
2021/07/23 06:25:48;;;;;;;4.40;2.50;;;;;;;40.70;22.78;100600.38;1777800;80;21894;-93
2021/07/23 06:28:14;;;;;;;5.83;2.90;;;;;;;40.10;24.08;100597.35;1780753;80;20888;-91
2021/07/23 06:30:41;;;;;;;9.08;2.58;;;;;;;40.46;24.34;100594.51;1784755;79;20853;-83
2021/07/23 06:33:07;;;;;;;3.90;2.42;;;;;;;40.74;24.21;100602.42;1744813;81;21028;-87
2021/07/23 06:35:33;;;;;;;3.80;2.35;;;;;;;41.00;23.58;100598.03;1744456;81;20902;-87
2021/07/23 06:38:00;;;;;;;5.22;2.55;;;;;;;40.98;23.18;100601.20;1744702;80;21166;-83
2021/07/23 06:40:26;;;;;;;5.60;2.75;;;;;;;41.07;23.34;100604.06;1742225;81;21111;-86
2021/07/23 06:42:55;;;;;;;3.77;2.15;;;;;;;41.21;23.21;100605.44;1743879;82;21020;-87
2021/07/23 06:45:22;;;;;;;9.33;2.50;;;;;;;41.01;22.83;100608.11;1743835;81;21041;-84
2021/07/23 06:47:47;;;;;;;4.90;2.72;;;;;;;40.59;23.55;100609.27;1744143;82;21497;-88
2021/07/23 06:50:14;;;;;;;5.62;2.67;;;;;;;40.51;23.30;100613.67;1744252;82;21131;-86
2021/07/23 06:52:43;;;;;;;2.70;2.40;;;;;;;40.67;23.46;100611.22;1742928;82;20965;-85
2021/07/23 06:55:10;;;;;;;7.10;2.60;;;;;;;40.75;22.92;100604.01;1742711;82;21092;-87
2021/07/23 06:57:36;;;;;;;3.52;2.77;;;;;;;41.20;22.85;100606.08;1742599;82;21096;-87
2021/07/23 07:00:05;;;;;;;5.55;2.75;;;;;;;41.20;22.91;100609.54;1743229;82;21009;-90
2021/07/23 07:02:31;;;;;;;4.40;2.40;;;;;;;41.24;22.60;100605.31;1739882;81;21465;-86
2021/07/23 07:04:59;;;;;;;2.65;2.45;;;;;;;41.64;21.83;100609.97;1743423;82;20854;-87
2021/07/23 07:07:25;;;;;;;6.55;2.87;;;;;;;41.58;21.16;100611.09;1742511;81;20965;-87
2021/07/23 07:09:51;;;;;;;2.80;2.58;;;;;;;41.11;21.56;100608.91;1746239;80;21441;-87
2021/07/23 07:12:17;;;;;;;4.20;2.62;;;;;;;41.10;21.85;100609.40;1741929;81;21020;-87
2021/07/23 07:14:44;;;;;;;3.50;2.15;;;;;;;40.91;22.54;100604.33;1744314;81;21694;-87
2021/07/23 07:17:12;;;;;;;3.35;2.30;;;;;;;40.85;20.64;100606.98;1744491;82;21182;-87
2021/07/23 07:19:37;;;;;;;7.80;2.30;;;;;;;40.04;21.00;100608.47;1743097;81;21044;-90
2021/07/23 07:22:05;;;;;;;2.90;1.98;;;;;;;39.55;22.17;100611.93;1741928;82;21508;-88
2021/07/23 07:24:31;;;;;;;12.82;2.40;;;;;;;39.54;21.63;100616.64;1742436;82;21073;-85
2021/07/23 07:26:57;;;;;;;2.60;2.00;;;;;;;38.79;21.61;100616.58;1743048;81;21616;-87
2021/07/23 07:29:23;;;;;;;7.80;2.37;;;;;;;38.33;22.95;100619.52;1754857;80;20924;-86
2021/07/23 07:31:48;;;;;;;6.55;1.90;;;;;;;38.55;23.42;100622.45;1778408;80;21570;-90
2021/07/23 07:34:14;;;;;;;5.20;1.82;;;;;;;38.96;22.96;100626.33;1768552;79;20861;-89
2021/07/23 07:36:42;;;;;;;2.25;1.90;;;;;;;39.07;22.37;100628.16;1786377;80;20921;-88
2021/07/23 07:39:09;;;;;;;2.83;1.70;;;;;;;39.73;21.54;100623.32;1779162;79;21131;-91
2021/07/23 07:41:35;;;;;;;4.55;1.85;;;;;;;40.35;21.27;100624.59;1785120;79;21047;-86
2021/07/23 07:44:01;;;;;;;1.92;1.60;;;;;;;40.48;20.95;100623.09;1788125;80;20972;-90
2021/07/23 07:46:27;;;;;;;1.87;1.65;;;;;;;40.39;21.37;100629.50;1780526;80;20885;-91
2021/07/23 07:48:53;;;;;;;3.62;1.80;;;;;;;40.42;21.52;100632.80;1781755;80;21661;-87
2021/07/23 07:51:19;;;;;;;1.60;1.50;;;;;;;40.55;20.64;100625.60;1780687;79;21188;-92
2021/07/23 07:53:45;;;;;;;2.20;2.00;;;;;;;40.44;20.45;100629.49;1771890;80;20968;-88
2021/07/23 07:56:13;;;;;;;3.92;1.80;;;;;;;40.56;20.28;100626.53;1771506;80;20853;-89
2021/07/23 07:58:39;;;;;;;2.08;1.85;;;;;;;40.55;20.42;100624.97;1787258;79;21483;-94
2021/07/23 08:01:14;;;;;;;2.42;1.90;;;;;;;40.73;20.15;100631.31;1769250;79;20953;-94
2021/07/23 08:03:39;;;;;;;3.37;2.00;;;;;;;40.02;20.56;100632.77;1757369;80;20999;-84
2021/07/23 08:06:27;;;;;;;9.40;2.65;;;;;;;39.59;20.27;100621.03;1781082;80;20967;-89
2021/07/23 08:09:05;;;;;;;6.22;1.95;;;;;;;39.44;20.58;100632.06;1779342;80;21080;-86
2021/07/23 08:11:35;;;;;;;4.95;1.55;;;;;;;38.06;21.62;100631.20;1766617;80;21057;-87
2021/07/23 08:14:02;;;;;;;3.58;1.70;;;;;;;37.35;21.63;100630.59;1757940;80;21051;-86
2021/07/23 08:16:30;;;;;;;2.75;1.62;;;;;;;37.38;22.75;100626.11;1767677;80;21542;-86
2021/07/23 08:18:56;;;;;;;3.37;1.37;;;;;;;37.83;22.97;100630.27;1781350;80;21023;-87
2021/07/23 08:21:22;;;;;;;1.72;1.52;;;;;;;37.91;22.50;100631.61;1776101;80;21027;-90
2021/07/23 08:23:48;;;;;;;3.77;1.45;;;;;;;38.46;22.00;100635.02;1770880;80;21630;-89
2021/07/23 08:26:14;;;;;;;6.50;1.55;;;;;;;38.59;22.59;100635.19;1778473;80;20911;-85
2021/07/23 08:28:40;;;;;;;5.80;1.55;;;;;;;39.13;21.79;100631.97;1754372;80;21080;-84
2021/07/23 08:31:06;;;;;;;4.78;1.32;;;;;;;38.65;21.85;100636.78;1766614;80;21668;-86
2021/07/23 08:33:31;;;;;;;1.50;1.40;;;;;;;38.91;21.90;100626.90;1767645;80;20903;-83
2021/07/23 08:35:57;;;;;;;5.15;1.42;;;;;;;39.46;21.44;100636.63;1781351;80;20884;-87
2021/07/23 08:38:25;;;;;;;2.62;1.47;;;;;;;39.64;20.97;100633.77;1779985;80;20885;-89
2021/07/23 08:40:51;;;;;;;2.47;1.67;;;;;;;39.23;22.32;100635.02;1758258;80;21095;-88
2021/07/23 08:43:17;;;;;;;3.92;1.47;;;;;;;39.61;21.68;100633.28;1765819;80;20983;-84
2021/07/23 08:45:43;;;;;;;2.52;1.55;;;;;;;39.93;21.17;100637.73;1767399;80;20869;-87
2021/07/23 08:48:09;;;;;;;2.42;1.60;;;;;;;40.54;20.93;100632.52;1760591;80;20999;-85
2021/07/23 08:50:37;;;;;;;2.33;1.60;;;;;;;40.80;20.57;100628.80;1758994;80;21657;-87
2021/07/23 08:53:09;;;;;;;2.58;1.30;;;;;;;40.67;20.00;100631.78;1801554;78;21830;-83
2021/07/23 08:55:34;;;;;;;4.92;1.62;;;;;;;39.96;19.49;100638.22;1797462;79;21506;-86
2021/07/23 08:58:01;;;;;;;2.85;1.57;;;;;;;40.09;20.45;100632.47;1785059;79;20991;-94
2021/07/23 09:00:27;;;;;;;4.40;1.70;;;;;;;40.40;19.96;100638.13;1780699;79;21102;-87
2021/07/23 09:03:06;;;;;;;1.60;1.30;;;;;;;40.33;19.98;100627.91;1771028;80;21457;-87
2021/07/23 09:05:45;;;;;;;2.05;1.30;;;;;;;40.44;19.67;100630.27;1773278;80;21033;-88
2021/07/23 09:08:16;;;;;;;4.80;1.45;;;;;;;40.33;19.82;100626.49;1770768;80;21526;-88
2021/07/23 09:10:47;;;;;;;1.92;1.42;;;;;;;39.43;19.71;100631.13;1773062;80;21025;-88
2021/07/23 09:13:23;;;;;;;2.58;1.40;;;;;;;38.51;19.36;100632.42;1773700;80;21040;-86
2021/07/23 09:15:57;;;;;;;6.83;1.10;;;;;;;37.11;20.89;100634.27;1773853;80;21580;-91
2021/07/23 09:21:02;;;;;;;4.83;1.47;;;;;;;37.60;21.13;100627.73;1690195;84;21113;-89
2021/07/23 09:23:34;;;;;;;3.17;1.77;;;;;;;37.50;22.13;100631.83;1681146;84;21053;-86
2021/07/23 09:26:14;;;;;;;3.20;1.62;;;;;;;37.77;21.23;100628.44;1683113;84;21094;-82
2021/07/23 09:28:42;;;;;;;4.90;1.47;;;;;;;37.97;20.60;100622.02;1686171;84;21608;-88
2021/07/23 09:31:11;;;;;;;5.53;1.70;;;;;;;37.68;21.31;100617.24;1677889;84;21757;-87
2021/07/23 09:33:40;;;;;;;3.20;1.70;;;;;;;37.80;22.28;100621.31;1664851;84;21572;-87
2021/07/23 09:36:10;;;;;;;2.58;1.20;;;;;;;37.65;21.72;100621.55;1679381;84;21050;-90
2021/07/23 09:38:42;;;;;;;6.58;1.27;;;;;;;37.53;22.22;100625.11;1692862;84;21590;-88
2021/07/23 09:41:25;;;;;;;1.52;1.25;;;;;;;37.63;21.35;100621.22;1593753;88;21121;-92
2021/07/23 09:44:08;;;;;;;3.08;1.00;;;;;;;37.05;22.51;100623.38;1608098;89;21086;-89
2021/07/23 09:47:16;;;;;;;1.95;1.10;;;;;;;37.11;22.17;100623.64;1605348;89;21090;-88
2021/07/23 09:49:45;;;;;;;4.25;1.10;;;;;;;37.47;21.87;100624.88;1573949;90;21115;-89
2021/07/23 09:52:11;;;;;;;2.75;1.07;;;;;;;37.38;22.28;100625.48;1582440;90;21091;-90
2021/07/23 09:54:39;;;;;;;1.62;1.10;;;;;;;36.56;21.74;100624.20;1580840;89;21605;-89
2021/07/23 09:57:08;;;;;;;2.22;0.82;;;;;;;35.79;22.52;100619.08;1578136;90;21514;-87
2021/07/23 10:00:00;;;;;;;5.47;0.90;;;;;;;35.51;23.21;100614.23;1578457;90;21083;-87
2021/07/23 10:02:27;;;;;;;7.30;0.85;;;;;;;35.88;23.28;100611.66;1486239;94;21750;-89
2021/07/23 10:05:06;;;;;;;3.55;1.05;;;;;;;35.80;23.24;100615.05;1487281;93;21181;-88
2021/07/23 10:07:53;;;;;;;4.00;1.30;;;;;;;35.61;24.34;100616.03;1487681;93;21661;-88
2021/07/23 10:10:21;;;;;;;2.27;0.90;;;;;;;35.12;24.22;100614.96;1481537;94;21267;-92
2021/07/23 10:12:50;;;;;;;6.10;0.78;;;;;;;34.35;24.40;100613.17;1486917;93;21122;-91
2021/07/23 10:15:25;;;;;;;2.62;0.90;;;;;;;33.73;25.40;100611.62;1489982;95;21311;-91
2021/07/23 10:17:51;;;;;;;3.62;1.15;;;;;;;33.36;26.12;100604.06;1512645;90;21066;-87
2021/07/23 10:20:20;;;;;;;6.22;1.17;;;;;;;33.22;26.78;100605.00;1554667;89;21120;-89
2021/07/23 10:22:55;;;;;;;6.37;1.20;;;;;;;32.80;26.68;100609.16;1561877;89;21124;-87
2021/07/23 10:25:31;;;;;;;4.67;1.00;;;;;;;32.47;26.50;100604.23;1556237;89;21001;-88
2021/07/23 10:27:55;;;;;;;3.20;1.27;;;;;;;32.50;27.04;100616.78;1553864;89;21788;-90
2021/07/23 10:30:42;;;;;;;1.90;0.80;;;;;;;32.11;27.08;100605.23;1550715;90;20929;-90
2021/07/23 10:33:08;;;;;;;3.17;1.37;;;;;;;32.07;28.79;100601.67;1553170;90;21629;-91
2021/07/23 10:35:35;;;;;;;2.90;1.00;;;;;;;32.48;28.35;100612.20;1522823;91;21185;-88
2021/07/23 10:38:03;;;;;;;3.00;1.07;;;;;;;32.57;27.63;100594.39;1605876;85;21087;-91
2021/07/23 10:40:39;;;;;;;3.30;1.00;;;;;;;32.77;27.80;100603.61;1762743;79;21020;-93
2021/07/23 10:43:33;;;;;;;2.70;1.00;;;;;;;32.80;28.07;100609.77;1774614;79;21041;-89
2021/07/23 10:45:59;;;;;;;3.37;1.00;;;;;;;32.62;29.41;100604.34;1770050;79;21536;-87
2021/07/23 10:48:47;;;;;;;0.80;0.80;;;;;;;32.91;28.07;100606.86;1781195;80;21117;-93
2021/07/23 10:51:46;;;;;;;1.32;1.10;;;;;;;33.04;28.20;100611.38;1771709;80;20952;-90
2021/07/23 10:54:12;;;;;;;3.55;0.82;;;;;;;32.27;27.18;100608.14;1769383;80;21063;-86
2021/07/23 10:57:06;;;;;;;8.18;0.90;;;;;;;31.49;28.03;100605.09;1751645;80;21008;-89
2021/07/23 10:59:48;;;;;;;1.92;0.88;;;;;;;31.17;29.51;100598.36;1779992;80;21051;-89
2021/07/23 11:02:38;;;;;;;5.03;1.00;;;;;;;31.75;29.12;100595.44;1770043;80;21917;-90
2021/07/23 11:05:11;;;;;;;7.42;1.00;;;;;;;32.26;29.24;100595.38;1772021;80;21126;-88
2021/07/23 11:07:38;;;;;;;3.52;0.90;;;;;;;32.28;28.74;100599.35;1781867;80;21020;-92
2021/07/23 11:10:08;;;;;;;1.72;0.85;;;;;;;32.47;28.78;100595.25;1769162;80;20960;-89
2021/07/23 11:12:45;;;;;;;1.82;0.80;;;;;;;32.67;28.55;100589.13;1774118;80;21036;-87
2021/07/23 11:15:13;;;;;;;2.27;0.85;;;;;;;32.28;27.89;100582.62;1774214;80;21235;-91
2021/07/23 11:17:52;;;;;;;1.55;0.98;;;;;;;32.12;29.24;100589.28;1771269;79;23983;-89
2021/07/23 11:20:34;;;;;;;3.45;0.95;;;;;;;32.45;28.10;100576.75;1741386;81;21581;-81
2021/07/23 11:22:59;;;;;;;3.35;1.20;;;;;;;32.78;28.42;100577.27;1710998;83;21079;-85
2021/07/23 11:25:25;;;;;;;2.77;1.17;;;;;;;32.65;28.15;100574.20;1708160;83;21014;-85
2021/07/23 11:27:53;;;;;;;1.40;0.80;;;;;;;32.77;28.19;100579.88;1682314;83;21489;-87
2021/07/23 11:30:25;;;;;;;4.30;0.90;;;;;;;32.89;28.41;100574.39;1685308;83;21035;-91
2021/07/23 11:32:56;;;;;;;3.80;0.80;;;;;;;32.98;28.15;100575.52;1693711;83;21117;-85